Time;durP1;ratioP1;P1;durP2;ratioP2;P2;SDS_P1;SDS_P2;PMS_P1;PMS_P2;Temp;Humidity;BMP_temperature;BMP_pressure;BME280_temperature;BME280_humidity;BME280_pressure;Samples;Min_cycle;Max_cycle;Signal;HPM_P1;HPM_P2
2023/12/10 00:00:32;;;;;;;14.53;12.97;;;2.90;83.50;;;;;;6260923;28;20244;-82
2023/12/10 00:03:35;;;;;;;15.73;14.13;;;2.90;83.60;;;;;;6248365;28;20352;-82
2023/12/10 00:06:39;;;;;;;15.07;13.70;;;2.80;83.70;;;;;;6259077;28;20401;-83
2023/12/10 00:09:43;;;;;;;19.07;12.83;;;2.80;83.80;;;;;;6261678;28;20242;-82
2023/12/10 00:12:47;;;;;;;15.80;14.20;;;2.90;83.70;;;;;;6240106;28;20258;-83
2023/12/10 00:15:50;;;;;;;15.30;13.83;;;2.80;83.90;;;;;;6253841;28;20733;-84
2023/12/10 00:18:54;;;;;;;15.43;13.60;;;2.90;83.90;;;;;;6246025;28;20640;-82
2023/12/10 00:21:57;;;;;;;18.07;13.80;;;2.90;84.00;;;;;;6247229;28;20238;-82
2023/12/10 00:25:02;;;;;;;14.77;13.20;;;2.80;84.10;;;;;;6245589;28;20253;-82
2023/12/10 00:28:06;;;;;;;12.97;11.77;;;2.80;84.10;;;;;;6245313;28;20242;-82
2023/12/10 00:31:10;;;;;;;13.77;12.47;;;2.90;84.10;;;;;;6245221;28;20277;-80
2023/12/10 00:34:13;;;;;;;14.40;12.90;;;2.90;84.10;;;;;;6245170;28;20252;-82
2023/12/10 00:37:17;;;;;;;15.93;14.33;;;2.90;84.10;;;;;;6242695;28;20287;-81
2023/12/10 00:40:21;;;;;;;13.83;12.53;;;3.00;83.90;;;;;;6239292;28;20585;-84
2023/12/10 00:43:24;;;;;;;15.07;13.77;;;2.90;84.00;;;;;;6252133;28;20295;-83
2023/12/10 00:46:28;;;;;;;13.53;12.33;;;2.90;84.10;;;;;;6256041;28;20242;-84
2023/12/10 00:49:31;;;;;;;14.70;13.10;;;2.90;84.10;;;;;;6257417;28;20232;-83
2023/12/10 00:52:36;;;;;;;15.20;13.77;;;2.90;84.10;;;;;;6242906;28;20234;-80
2023/12/10 00:55:41;;;;;;;14.40;12.93;;;2.80;84.10;;;;;;6251352;28;20234;-82
2023/12/10 00:58:44;;;;;;;15.90;13.87;;;2.90;84.30;;;;;;6246608;28;20683;-82
2023/12/10 01:01:48;;;;;;;14.17;12.73;;;2.90;84.10;;;;;;6255579;28;20238;-83
2023/12/10 01:04:51;;;;;;;14.47;12.60;;;2.90;84.10;;;;;;6249235;28;20908;-80
2023/12/10 01:07:55;;;;;;;14.53;13.03;;;2.80;84.10;;;;;;6255779;28;20238;-82
2023/12/10 01:11:00;;;;;;;14.40;13.03;;;2.80;84.40;;;;;;6248604;28;20238;-82
2023/12/10 01:14:03;;;;;;;16.63;14.60;;;2.80;84.30;;;;;;6249093;28;20971;-80
2023/12/10 01:17:08;;;;;;;14.53;13.07;;;2.80;84.30;;;;;;6248475;28;20245;-82
2023/12/10 01:20:12;;;;;;;14.43;13.13;;;2.80;84.30;;;;;;6249826;28;20814;-85
2023/12/10 01:23:16;;;;;;;14.97;13.47;;;2.70;84.60;;;;;;6234639;28;20269;-80
2023/12/10 01:26:20;;;;;;;16.27;13.40;;;2.70;84.70;;;;;;6233417;28;20233;-86
2023/12/10 01:29:25;;;;;;;16.63;13.80;;;2.80;84.70;;;;;;6238062;28;20231;-83
2023/12/10 01:32:29;;;;;;;14.93;13.57;;;2.80;84.50;;;;;;6235446;28;20250;-83
2023/12/10 01:35:33;;;;;;;15.70;14.20;;;2.80;84.50;;;;;;6214363;28;20244;-81
2023/12/10 01:38:36;;;;;;;14.07;12.80;;;2.80;84.60;;;;;;6223612;28;20912;-83
2023/12/10 01:41:41;;;;;;;14.37;12.97;;;2.70;84.60;;;;;;6214382;28;20235;-80
2023/12/10 01:44:44;;;;;;;14.23;12.93;;;2.70;84.70;;;;;;6219118;28;20277;-86
2023/12/10 01:47:51;;;;;;;15.20;13.60;;;2.70;84.70;;;;;;6230358;28;20239;-83
2023/12/10 01:50:55;;;;;;;14.87;13.47;;;2.70;84.80;;;;;;6221910;28;20730;-79
2023/12/10 01:53:58;;;;;;;14.83;13.33;;;2.70;84.70;;;;;;6213186;28;20236;-80
2023/12/10 01:57:05;;;;;;;14.27;12.87;;;2.70;84.80;;;;;;6222766;28;20247;-81
2023/12/10 02:00:10;;;;;;;13.43;12.23;;;2.70;84.70;;;;;;6221972;28;20244;-83
2023/12/10 02:03:14;;;;;;;14.23;12.93;;;2.60;84.40;;;;;;6223767;28;20261;-82
2023/12/10 02:06:17;;;;;;;15.77;12.03;;;2.50;84.80;;;;;;6222159;28;20242;-82
2023/12/10 02:09:21;;;;;;;13.70;12.40;;;2.60;84.90;;;;;;6222774;28;20231;-81
2023/12/10 02:12:27;;;;;;;13.27;12.17;;;2.60;84.50;;;;;;6223771;28;20276;-82
2023/12/10 02:15:35;;;;;;;12.80;11.70;;;2.60;84.10;;;;;;6206740;28;20239;-81
2023/12/10 02:18:38;;;;;;;12.83;11.70;;;2.50;84.00;;;;;;6227372;28;20869;-82
2023/12/10 02:21:45;;;;;;;12.47;11.27;;;2.50;84.10;;;;;;6221861;28;20227;-80
2023/12/10 02:24:52;;;;;;;11.97;10.90;;;2.50;84.10;;;;;;6230482;28;20735;-83
2023/12/10 02:27:57;;;;;;;12.57;11.37;;;2.40;83.60;;;;;;6228023;28;20852;-80
2023/12/10 02:31:00;;;;;;;12.40;11.50;;;2.40;83.70;;;;;;6229304;28;20544;-82
2023/12/10 02:34:03;;;;;;;12.37;11.27;;;2.40;83.70;;;;;;6235807;28;20234;-83
2023/12/10 02:37:07;;;;;;;11.37;10.47;;;2.30;83.70;;;;;;6222594;28;20411;-84
2023/12/10 02:40:11;;;;;;;11.53;10.63;;;2.30;84.00;;;;;;6229555;28;20977;-83
2023/12/10 02:43:19;;;;;;;11.40;10.40;;;2.30;83.90;;;;;;6213667;28;20241;-82
2023/12/10 02:46:22;;;;;;;12.07;11.00;;;2.30;83.90;;;;;;6229010;28;20330;-82
2023/12/10 02:49:26;;;;;;;12.63;11.53;;;2.30;84.00;;;;;;6221587;28;20257;-82
2023/12/10 02:52:29;;;;;;;11.23;10.30;;;2.30;84.10;;;;;;6213167;28;20732;-82
2023/12/10 02:55:33;;;;;;;11.70;10.80;;;2.20;84.10;;;;;;6206050;28;20254;-82
2023/12/10 02:58:37;;;;;;;11.40;10.47;;;2.20;84.20;;;;;;6234024;28;20293;-82
2023/12/10 03:01:40;;;;;;;13.27;12.07;;;2.10;84.50;;;;;;6224793;28;20238;-82
2023/12/10 03:04:44;;;;;;;12.70;11.60;;;2.10;84.50;;;;;;6223506;28;20266;-82
2023/12/10 03:07:47;;;;;;;13.03;11.93;;;2.10;84.60;;;;;;6212771;28;20227;-80
2023/12/10 03:10:50;;;;;;;13.27;12.13;;;2.10;84.80;;;;;;6221431;28;20235;-83
2023/12/10 03:13:55;;;;;;;11.90;10.90;;;2.20;84.60;;;;;;6234968;28;20250;-83
2023/12/10 03:16:58;;;;;;;12.47;11.47;;;2.20;84.60;;;;;;6224837;28;20291;-81
2023/12/10 03:20:02;;;;;;;13.07;11.87;;;2.20;84.70;;;;;;6235819;28;20317;-83
2023/12/10 03:23:05;;;;;;;11.60;10.70;;;2.20;84.70;;;;;;6220693;28;20234;-80
2023/12/10 03:26:08;;;;;;;12.37;11.37;;;2.20;84.80;;;;;;6214930;28;20634;-82
2023/12/10 03:29:13;;;;;;;11.77;10.77;;;2.30;84.70;;;;;;6221386;28;20254;-82
2023/12/10 03:32:16;;;;;;;12.17;11.27;;;2.30;84.30;;;;;;6227983;28;20884;-83
2023/12/10 03:35:19;;;;;;;12.17;11.17;;;2.20;84.50;;;;;;6227901;28;20282;-80
2023/12/10 03:38:24;;;;;;;12.20;11.10;;;2.30;84.50;;;;;;6236641;28;20298;-82
2023/12/10 03:41:27;;;;;;;13.13;12.03;;;2.30;84.60;;;;;;6221237;28;20310;-83
2023/12/10 03:44:32;;;;;;;12.63;11.53;;;2.30;84.50;;;;;;6228185;28;20235;-82
2023/12/10 03:47:36;;;;;;;12.50;11.40;;;2.30;84.50;;;;;;6228571;28;20340;-85
2023/12/10 03:50:39;;;;;;;14.87;13.43;;;2.30;84.60;;;;;;6218794;28;20914;-81
2023/12/10 03:53:42;;;;;;;13.37;12.27;;;2.20;84.70;;;;;;6232285;28;20329;-82
2023/12/10 03:56:45;;;;;;;13.37;12.10;;;2.20;85.00;;;;;;6218414;28;20314;-82
2023/12/10 03:59:50;;;;;;;13.23;12.10;;;2.20;85.00;;;;;;6217905;28;20321;-79
2023/12/10 04:02:53;;;;;;;13.23;12.03;;;2.20;85.10;;;;;;6225745;28;20254;-82
2023/12/10 04:05:56;;;;;;;13.43;12.33;;;2.20;85.10;;;;;;6227813;28;20250;-82
2023/12/10 04:08:59;;;;;;;12.93;11.83;;;2.20;85.00;;;;;;6227321;28;20365;-82
2023/12/10 04:12:05;;;;;;;13.90;12.70;;;2.20;85.00;;;;;;6211550;28;20297;-82
2023/12/10 04:15:11;;;;;;;14.43;13.13;;;2.30;84.90;;;;;;6231177;28;20265;-83
2023/12/10 04:18:15;;;;;;;13.47;12.10;;;2.30;84.80;;;;;;6223113;28;20722;-84
2023/12/10 04:21:20;;;;;;;12.93;11.63;;;2.20;84.90;;;;;;6241752;28;20230;-83
2023/12/10 04:24:23;;;;;;;13.47;12.27;;;2.30;85.00;;;;;;6205187;28;20381;-84
2023/12/10 04:27:26;;;;;;;13.07;11.83;;;2.30;84.90;;;;;;6232343;28;20747;-81
2023/12/10 04:30:32;;;;;;;13.97;12.77;;;2.30;85.00;;;;;;6230191;28;20235;-82
2023/12/10 04:33:35;;;;;;;15.13;13.67;;;2.30;85.10;;;;;;6225933;28;20241;-83
2023/12/10 04:36:39;;;;;;;15.23;13.83;;;2.20;85.40;;;;;;6228972;28;20251;-81
2023/12/10 04:39:42;;;;;;;13.80;12.47;;;2.20;85.70;;;;;;6238522;28;20286;-83
2023/12/10 04:42:45;;;;;;;13.50;12.40;;;2.30;85.50;;;;;;6242598;28;20229;-82
2023/12/10 04:45:50;;;;;;;14.37;12.97;;;2.30;85.50;;;;;;6233406;28;20302;-79
2023/12/10 04:48:54;;;;;;;15.63;14.23;;;2.30;85.50;;;;;;6246449;28;20314;-85
2023/12/10 04:51:57;;;;;;;14.70;13.33;;;2.30;85.60;;;;;;6226249;28;20243;-83
2023/12/10 04:55:04;;;;;;;14.10;12.80;;;2.40;85.70;;;;;;6227120;28;20778;-82
2023/12/10 04:58:07;;;;;;;13.67;12.37;;;2.30;85.70;;;;;;6240198;28;20242;-82
2023/12/10 05:01:12;;;;;;;13.70;12.40;;;2.30;86.00;;;;;;6232675;28;20333;-81
2023/12/10 05:04:15;;;;;;;14.10;12.80;;;2.20;86.10;;;;;;6222132;28;20247;-82
2023/12/10 05:07:19;;;;;;;14.23;12.87;;;2.30;86.20;;;;;;6238290;28;20312;-84
2023/12/10 05:10:23;;;;;;;14.10;12.77;;;2.40;86.10;;;;;;6226097;28;20330;-82
2023/12/10 05:13:27;;;;;;;15.60;14.17;;;2.40;86.00;;;;;;6222388;28;20254;-80
2023/12/10 05:16:32;;;;;;;16.40;13.07;;;2.40;86.10;;;;;;6216463;28;20235;-82
2023/12/10 05:19:35;;;;;;;14.73;13.23;;;2.50;86.10;;;;;;6212790;28;20317;-82
2023/12/10 05:22:38;;;;;;;15.37;13.97;;;2.50;85.80;;;;;;6226702;28;20731;-83
2023/12/10 05:25:41;;;;;;;15.53;14.13;;;2.50;85.70;;;;;;6231103;28;20296;-81
2023/12/10 05:28:44;;;;;;;15.10;13.67;;;2.50;85.90;;;;;;6227846;28;20889;-75
2023/12/10 05:31:49;;;;;;;15.07;13.67;;;2.50;86.00;;;;;;6230439;28;20313;-82
2023/12/10 05:34:56;;;;;;;15.33;13.93;;;2.50;85.80;;;;;;6233572;28;20238;-81
2023/12/10 05:37:59;;;;;;;14.00;12.70;;;2.50;86.10;;;;;;6221621;28;20741;-81
2023/12/10 05:41:02;;;;;;;16.30;14.80;;;2.50;86.20;;;;;;6222922;28;20621;-81
2023/12/10 05:44:05;;;;;;;15.07;13.67;;;2.60;86.00;;;;;;6228657;28;20234;-81
2023/12/10 05:47:10;;;;;;;16.20;14.57;;;2.70;86.10;;;;;;6222190;28;20731;-83
2023/12/10 05:50:16;;;;;;;16.47;14.87;;;2.70;86.00;;;;;;6220476;28;20246;-81
2023/12/10 05:53:19;;;;;;;15.13;13.67;;;2.60;86.40;;;;;;6241538;28;20324;-83
2023/12/10 05:56:22;;;;;;;18.27;15.00;;;2.70;86.50;;;;;;6234774;28;20238;-81
2023/12/10 05:59:25;;;;;;;16.47;14.77;;;2.70;86.40;;;;;;6238963;28;20271;-80
2023/12/10 06:02:30;;;;;;;17.73;15.07;;;2.70;86.50;;;;;;6228613;28;20341;-81
2023/12/10 06:05:33;;;;;;;16.93;15.00;;;2.70;86.50;;;;;;6227144;28;20369;-82
2023/12/10 06:08:36;;;;;;;18.83;16.17;;;2.60;86.70;;;;;;6217872;28;20246;-83
2023/12/10 06:11:40;;;;;;;18.40;16.27;;;2.70;86.80;;;;;;6220684;28;20239;-83
2023/12/10 06:14:43;;;;;;;17.17;15.37;;;2.60;87.00;;;;;;6223514;28;20325;-83
2023/12/10 06:17:47;;;;;;;18.27;15.73;;;2.70;87.00;;;;;;6223692;28;20322;-83
2023/12/10 06:20:51;;;;;;;19.27;15.90;;;2.80;86.80;;;;;;6218886;28;20235;-79
2023/12/10 06:23:54;;;;;;;17.23;15.57;;;2.80;86.90;;;;;;6218300;28;20239;-83
2023/12/10 06:26:57;;;;;;;19.27;16.47;;;2.80;86.70;;;;;;6219140;28;20530;-83
2023/12/10 06:30:01;;;;;;;18.10;16.20;;;2.80;86.50;;;;;;6219646;28;20330;-82
2023/12/10 06:33:06;;;;;;;17.00;15.20;;;2.70;86.70;;;;;;6215258;28;20326;-84
2023/12/10 06:36:10;;;;;;;21.10;15.67;;;2.70;86.70;;;;;;6212567;28;20760;-81
2023/12/10 06:39:13;;;;;;;17.73;15.83;;;2.70;86.70;;;;;;6222499;28;20885;-83
2023/12/10 06:42:16;;;;;;;18.27;16.43;;;2.70;86.70;;;;;;6214788;28;20416;-83
2023/12/10 06:45:19;;;;;;;18.97;16.37;;;2.70;86.90;;;;;;6227622;28;20248;-83
2023/12/10 06:48:25;;;;;;;19.10;17.10;;;2.70;87.00;;;;;;6221863;28;20243;-82
2023/12/10 06:51:28;;;;;;;19.23;16.67;;;2.70;87.10;;;;;;6228582;28;21307;-83
2023/12/10 06:54:31;;;;;;;19.30;16.53;;;2.70;87.30;;;;;;6227404;28;20721;-84
2023/12/10 06:57:35;;;;;;;18.33;16.53;;;2.70;87.40;;;;;;6231143;28;20243;-84
2023/12/10 07:00:38;;;;;;;22.60;17.87;;;2.70;87.50;;;;;;6217974;28;20243;-83
2023/12/10 07:03:43;;;;;;;17.90;16.10;;;2.70;87.70;;;;;;6218515;28;20235;-84
2023/12/10 07:06:46;;;;;;;20.50;17.03;;;2.80;87.80;;;;;;6212396;28;20294;-84
2023/12/10 07:09:49;;;;;;;19.60;16.77;;;2.80;87.80;;;;;;6229499;28;20235;-85
2023/12/10 07:12:55;;;;;;;22.47;17.67;;;2.70;87.70;;;;;;6238277;28;20907;-85
2023/12/10 07:15:59;;;;;;;22.67;17.00;;;2.70;87.70;;;;;;6240920;28;20270;-86
2023/12/10 07:19:04;;;;;;;18.00;16.10;;;2.60;87.60;;;;;;6261650;28;20222;-78
2023/12/10 07:22:07;;;;;;;17.87;16.03;;;2.50;87.60;;;;;;6257966;28;20240;-84
2023/12/10 07:25:18;;;;;;;18.17;15.77;;;2.50;87.60;;;;;;6256973;28;20246;-80
2023/12/10 07:28:21;;;;;;;16.30;14.73;;;2.50;87.70;;;;;;6260534;28;20358;-83
2023/12/10 07:31:25;;;;;;;18.57;14.60;;;2.50;87.60;;;;;;6242220;28;20300;-84
2023/12/10 07:34:30;;;;;;;22.03;16.33;;;2.50;87.70;;;;;;6258179;28;20328;-85
2023/12/10 07:37:33;;;;;;;23.23;16.53;;;2.50;88.00;;;;;;6249192;28;20321;-85
2023/12/10 07:40:37;;;;;;;23.57;15.93;;;2.70;88.10;;;;;;6241530;28;20276;-85
2023/12/10 07:43:40;;;;;;;22.60;16.17;;;2.80;88.20;;;;;;6252856;28;20253;-86
2023/12/10 07:46:43;;;;;;;23.83;16.73;;;2.90;88.40;;;;;;6248839;28;20242;-85
2023/12/10 07:49:48;;;;;;;20.83;16.60;;;3.00;88.50;;;;;;6252374;28;20233;-83
2023/12/10 07:52:51;;;;;;;22.83;17.40;;;3.10;88.40;;;;;;6230280;28;20223;-84
2023/12/10 07:55:54;;;;;;;24.27;17.10;;;3.10;88.50;;;;;;6233235;28;20603;-83
2023/12/10 07:58:58;;;;;;;22.90;17.23;;;3.20;88.40;;;;;;6230102;28;20243;-85
2023/12/10 08:02:01;;;;;;;21.33;16.53;;;3.30;88.40;;;;;;6225601;28;20736;-84
2023/12/10 08:05:06;;;;;;;22.00;18.10;;;3.30;88.40;;;;;;6229153;28;20239;-83
2023/12/10 08:08:09;;;;;;;23.43;17.67;;;3.40;88.50;;;;;;6234223;28;20227;-76
2023/12/10 08:11:12;;;;;;;22.90;17.60;;;3.50;88.40;;;;;;6230481;28;20768;-82
2023/12/10 08:14:16;;;;;;;21.93;17.20;;;3.50;88.50;;;;;;6237718;28;20274;-82
2023/12/10 08:17:20;;;;;;;23.47;17.27;;;3.60;88.50;;;;;;6228724;28;20282;-81
2023/12/10 08:20:25;;;;;;;21.03;15.93;;;3.70;88.40;;;;;;6238281;28;20314;-83
2023/12/10 08:23:28;;;;;;;16.77;14.83;;;3.70;88.20;;;;;;6226070;28;20312;-82
2023/12/10 08:26:32;;;;;;;18.00;15.40;;;3.70;88.10;;;;;;6233307;28;20234;-84
2023/12/10 08:29:35;;;;;;;18.33;15.33;;;3.70;88.10;;;;;;6224917;28;20270;-82
2023/12/10 08:32:38;;;;;;;19.70;15.33;;;3.80;88.10;;;;;;6230930;28;20259;-84
2023/12/10 08:35:43;;;;;;;19.37;14.97;;;3.90;88.20;;;;;;6234644;28;20245;-82
2023/12/10 08:38:47;;;;;;;22.07;15.67;;;3.90;88.20;;;;;;6222256;28;20251;-82
2023/12/10 08:41:50;;;;;;;21.33;15.40;;;4.00;87.90;;;;;;6227015;28;20266;-81
2023/12/10 08:44:53;;;;;;;23.40;15.87;;;4.00;88.00;;;;;;6226069;28;20780;-79
2023/12/10 08:47:57;;;;;;;22.60;15.47;;;4.20;88.00;;;;;;6235310;28;20265;-82
2023/12/10 08:51:03;;;;;;;19.23;14.70;;;4.20;87.90;;;;;;6231597;28;20245;-82
2023/12/10 08:54:07;;;;;;;20.30;13.73;;;4.40;87.90;;;;;;6236067;28;20234;-82
2023/12/10 08:57:10;;;;;;;14.83;12.10;;;4.40;87.90;;;;;;6225897;28;20231;-82
2023/12/10 09:00:14;;;;;;;16.53;11.67;;;4.50;87.90;;;;;;6221729;28;20251;-83
2023/12/10 09:03:18;;;;;;;16.77;10.07;;;4.70;87.90;;;;;;6232925;28;20236;-85
2023/12/10 09:06:22;;;;;;;15.93;9.87;;;4.90;87.80;;;;;;6221991;28;20559;-80
2023/12/10 09:09:26;;;;;;;13.53;8.73;;;5.00;87.90;;;;;;6225626;28;20301;-86
2023/12/10 09:12:30;;;;;;;15.37;8.03;;;5.10;88.00;;;;;;6245650;28;20247;-82
2023/12/10 09:15:33;;;;;;;21.27;8.73;;;5.30;87.80;;;;;;6227065;28;20242;-84
2023/12/10 09:18:37;;;;;;;19.47;7.53;;;5.50;87.90;;;;;;6224136;28;20258;-85
2023/12/10 09:21:43;;;;;;;16.87;7.53;;;5.60;87.70;;;;;;6227265;28;20235;-85
2023/12/10 09:24:46;;;;;;;10.37;7.27;;;5.70;87.50;;;;;;6238854;28;20314;-83
2023/12/10 09:27:50;;;;;;;11.93;6.60;;;5.90;87.00;;;;;;6241028;28;20237;-81
2023/12/10 09:30:53;;;;;;;17.73;7.27;;;6.00;86.40;;;;;;6247511;28;20231;-81
2023/12/10 09:33:56;;;;;;;10.70;6.47;;;6.00;86.00;;;;;;6228316;28;20324;-81
2023/12/10 09:37:02;;;;;;;12.23;6.40;;;6.10;86.20;;;;;;6224997;28;20235;-81
2023/12/10 09:40:06;;;;;;;13.13;6.47;;;6.20;85.80;;;;;;6224757;28;20230;-85
2023/12/10 09:43:11;;;;;;;15.73;6.10;;;6.30;85.40;;;;;;6225680;28;20230;-83
2023/12/10 09:46:15;;;;;;;16.20;6.30;;;6.30;84.80;;;;;;6225460;28;20242;-83
2023/12/10 09:49:19;;;;;;;14.60;6.10;;;6.40;85.00;;;;;;6203610;28;20262;-84
2023/12/10 09:52:25;;;;;;;10.20;6.30;;;6.50;84.50;;;;;;6226175;28;20242;-83
2023/12/10 09:55:30;;;;;;;13.67;6.40;;;6.50;84.20;;;;;;6216475;28;20239;-85
2023/12/10 09:58:33;;;;;;;15.43;6.67;;;6.60;84.50;;;;;;6229482;28;20243;-81
2023/12/10 10:01:36;;;;;;;12.80;6.23;;;6.70;84.20;;;;;;6219372;28;20801;-80
2023/12/10 10:04:41;;;;;;;14.80;6.07;;;6.80;83.70;;;;;;6226257;28;20744;-83
2023/12/10 10:07:46;;;;;;;15.90;7.10;;;6.80;83.70;;;;;;6234697;28;20237;-86
2023/12/10 10:10:59;;;;;;;14.23;6.13;;;6.90;83.40;;;;;;6234745;28;20235;-84
2023/12/10 10:14:02;;;;;;;11.20;6.13;;;6.90;83.40;;;;;;6243666;28;20230;-84
2023/12/10 10:17:08;;;;;;;15.23;5.47;;;7.00;83.40;;;;;;6263084;28;20239;-84
2023/12/10 10:20:14;;;;;;;19.23;6.30;;;7.10;82.90;;;;;;6237318;28;20240;-87
2023/12/10 10:23:22;;;;;;;17.33;6.47;;;7.00;83.00;;;;;;6233206;28;20239;-85
2023/12/10 10:26:27;;;;;;;19.63;7.03;;;7.00;83.20;;;;;;6220992;28;20951;-84
2023/12/10 10:29:31;;;;;;;11.70;6.23;;;7.00;83.10;;;;;;6234346;28;20626;-85
2023/12/10 10:32:37;;;;;;;13.17;6.07;;;7.00;83.10;;;;;;6228245;28;20341;-84
2023/12/10 10:35:41;;;;;;;16.97;6.10;;;7.00;83.20;;;;;;6245310;28;20235;-85
2023/12/10 10:38:47;;;;;;;14.83;6.27;;;7.10;83.20;;;;;;6230904;28;20259;-86
2023/12/10 10:41:50;;;;;;;22.87;6.53;;;7.00;83.30;;;;;;6234185;28;20235;-84
2023/12/10 10:44:57;;;;;;;15.83;5.77;;;7.00;83.50;;;;;;6229933;28;20282;-85
2023/12/10 10:48:01;;;;;;;21.13;6.43;;;7.00;83.30;;;;;;6232855;28;20647;-85
2023/12/10 10:51:05;;;;;;;20.53;6.77;;;7.00;83.20;;;;;;6240324;28;20271;-84
2023/12/10 10:54:11;;;;;;;16.47;6.33;;;7.00;83.30;;;;;;6248417;28;20239;-88
2023/12/10 10:57:28;;;;;;;11.83;5.90;;;7.00;83.40;;;;;;6248533;28;20258;-85
2023/12/10 11:00:37;;;;;;;18.47;5.90;;;7.00;83.50;;;;;;6244118;28;20273;-87
2023/12/10 11:03:41;;;;;;;14.40;6.10;;;7.00;83.00;;;;;;6231588;28;20243;-85
2023/12/10 11:06:49;;;;;;;15.60;6.57;;;7.00;83.50;;;;;;6256785;28;20242;-85
2023/12/10 11:09:59;;;;;;;17.43;6.90;;;6.90;83.80;;;;;;6234080;28;20226;-85
2023/12/10 11:13:03;;;;;;;21.57;6.97;;;6.90;83.70;;;;;;6230882;28;20243;-85
2023/12/10 11:16:08;;;;;;;15.10;6.23;;;6.90;83.70;;;;;;6226228;28;20293;-86
2023/12/10 11:19:24;;;;;;;13.10;6.97;;;7.00;83.80;;;;;;6225328;28;20239;-85
2023/12/10 11:22:28;;;;;;;14.40;6.07;;;7.00;83.70;;;;;;6229184;28;20270;-85
2023/12/10 11:25:34;;;;;;;13.57;6.70;;;7.00;83.60;;;;;;6222822;28;20521;-86
2023/12/10 11:28:38;;;;;;;16.50;6.27;;;7.00;83.70;;;;;;6245748;28;20234;-85
2023/12/10 11:31:44;;;;;;;15.87;6.20;;;7.00;83.60;;;;;;6256110;28;20603;-86
2023/12/10 11:34:47;;;;;;;16.60;6.60;;;7.00;83.70;;;;;;6236584;28;20249;-86
2023/12/10 11:37:53;;;;;;;15.10;5.93;;;7.00;83.60;;;;;;6261808;28;20760;-86
2023/12/10 11:40:58;;;;;;;13.77;6.37;;;7.00;83.20;;;;;;6269178;28;20249;-85
2023/12/10 11:44:01;;;;;;;16.77;6.07;;;7.00;83.20;;;;;;6257266;28;20878;-83
2023/12/10 11:47:05;;;;;;;18.60;6.20;;;6.90;83.40;;;;;;6250588;28;20234;-83
2023/12/10 11:50:09;;;;;;;7.47;5.63;;;7.00;83.30;;;;;;6252713;28;20237;-86
2023/12/10 11:53:16;;;;;;;16.07;6.57;;;7.00;83.30;;;;;;6242106;28;20376;-84
2023/12/10 11:56:21;;;;;;;12.00;6.07;;;7.00;83.00;;;;;;6250017;28;20268;-86
2023/12/10 11:59:25;;;;;;;11.67;5.53;;;6.90;83.50;;;;;;6258075;28;20238;-84
2023/12/10 12:02:29;;;;;;;14.23;6.03;;;7.00;83.30;;;;;;6266059;28;20257;-84
2023/12/10 12:05:33;;;;;;;13.50;5.63;;;7.00;83.00;;;;;;6237071;28;20242;-85
2023/12/10 12:08:38;;;;;;;10.27;5.20;;;7.00;83.00;;;;;;6237429;28;20251;-85
2023/12/10 12:11:44;;;;;;;11.03;5.47;;;7.00;82.90;;;;;;6249710;28;20714;-84
2023/12/10 12:14:48;;;;;;;12.50;5.47;;;7.00;82.60;;;;;;6247312;28;20241;-86
2023/12/10 12:17:51;;;;;;;10.63;5.93;;;7.10;82.60;;;;;;6240095;28;20243;-84
2023/12/10 12:20:55;;;;;;;14.73;5.50;;;7.00;83.00;;;;;;6243961;28;20260;-86
2023/12/10 12:23:59;;;;;;;18.20;6.47;;;7.00;83.40;;;;;;6248412;28;20246;-86
2023/12/10 12:27:07;;;;;;;10.90;5.57;;;7.00;83.40;;;;;;6237786;28;20241;-86
2023/12/10 12:30:11;;;;;;;10.60;5.70;;;7.00;83.70;;;;;;6255074;28;20227;-85
2023/12/10 12:33:16;;;;;;;13.77;6.30;;;7.00;83.70;;;;;;6236423;28;20242;-85
2023/12/10 12:36:20;;;;;;;15.87;6.43;;;7.00;83.90;;;;;;6255803;28;20234;-82
2023/12/10 12:39:25;;;;;;;13.27;5.97;;;6.90;84.40;;;;;;6249350;28;20244;-86
2023/12/10 12:42:29;;;;;;;16.13;7.13;;;6.90;84.40;;;;;;6251916;28;20356;-85
2023/12/10 12:45:33;;;;;;;19.80;7.77;;;6.90;84.40;;;;;;6249849;28;20252;-86
2023/12/10 12:48:37;;;;;;;10.53;6.03;;;6.90;84.60;;;;;;6259636;28;20234;-86
2023/12/10 12:51:41;;;;;;;11.03;5.13;;;6.90;84.40;;;;;;6253455;28;20272;-88
2023/12/10 12:54:45;;;;;;;13.70;6.13;;;6.90;84.20;;;;;;6245931;28;20247;-87
2023/12/10 12:57:50;;;;;;;16.90;5.63;;;6.90;84.40;;;;;;6258577;28;20233;-87
2023/12/10 13:00:53;;;;;;;14.43;6.37;;;6.90;84.40;;;;;;6270593;28;20250;-85
2023/12/10 13:03:57;;;;;;;9.87;4.97;;;6.90;84.50;;;;;;6257306;28;20890;-87
2023/12/10 13:07:03;;;;;;;12.93;5.33;;;6.90;84.20;;;;;;6245196;28;20225;-87
2023/12/10 13:10:08;;;;;;;7.70;5.13;;;6.90;84.50;;;;;;6275586;28;20253;-87
2023/12/10 13:13:13;;;;;;;6.77;4.80;;;6.90;84.50;;;;;;6250314;28;20675;-87
2023/12/10 13:16:17;;;;;;;9.50;5.00;;;6.80;84.80;;;;;;6250616;28;20246;-87
2023/12/10 13:19:20;;;;;;;11.73;5.63;;;6.80;84.90;;;;;;6255995;28;20313;-87
2023/12/10 13:22:24;;;;;;;10.00;4.77;;;6.80;85.00;;;;;;6248527;28;20273;-86
2023/12/10 13:25:30;;;;;;;9.40;5.30;;;6.90;85.00;;;;;;6258606;28;20659;-87
2023/12/10 13:28:35;;;;;;;13.80;5.80;;;6.90;84.70;;;;;;6245761;28;20243;-87
2023/12/10 13:31:39;;;;;;;8.37;5.23;;;6.90;84.60;;;;;;6266041;28;20257;-86
2023/12/10 13:34:43;;;;;;;10.87;5.00;;;6.90;84.50;;;;;;6266249;28;20276;-85
2023/12/10 13:37:46;;;;;;;8.00;4.60;;;6.90;84.50;;;;;;6254381;28;20269;-85
2023/12/10 13:40:49;;;;;;;6.27;4.57;;;7.00;84.10;;;;;;6247305;28;20249;-85
2023/12/10 13:43:54;;;;;;;7.03;4.53;;;7.00;84.10;;;;;;6247580;28;20238;-85
2023/12/10 13:46:58;;;;;;;8.03;4.97;;;6.90;84.40;;;;;;6263806;28;20234;-82
2023/12/10 13:50:02;;;;;;;6.03;5.20;;;6.80;84.90;;;;;;6249481;28;20239;-85
2023/12/10 13:53:06;;;;;;;5.23;4.77;;;6.90;84.90;;;;;;6245334;28;20250;-87
2023/12/10 13:56:09;;;;;;;10.70;4.93;;;6.80;84.90;;;;;;6253756;28;20687;-88
2023/12/10 13:59:14;;;;;;;6.93;5.50;;;6.90;85.20;;;;;;6256852;28;20280;-85
2023/12/10 14:02:17;;;;;;;4.53;4.10;;;6.90;85.10;;;;;;6252674;28;20265;-84
2023/12/10 14:05:20;;;;;;;5.10;4.50;;;7.00;84.70;;;;;;6261561;28;20247;-87
2023/12/10 14:08:24;;;;;;;7.47;4.53;;;6.90;84.80;;;;;;6251223;28;20852;-85
2023/12/10 14:11:27;;;;;;;4.07;3.77;;;6.90;85.20;;;;;;6244200;28;20246;-86
2023/12/10 14:14:41;;;;;;;6.37;4.40;;;6.90;85.30;;;;;;6258964;28;20841;-85
2023/12/10 14:17:45;;;;;;;5.63;4.73;;;6.90;85.30;;;;;;6270567;28;20302;-85
2023/12/10 14:20:49;;;;;;;7.70;4.70;;;6.90;85.30;;;;;;6258349;28;20238;-86
2023/12/10 14:23:53;;;;;;;5.70;5.23;;;6.80;85.60;;;;;;6271105;28;20237;-82
2023/12/10 14:26:57;;;;;;;7.57;4.90;;;6.80;85.70;;;;;;6269479;28;20237;-85
2023/12/10 14:30:02;;;;;;;5.83;4.47;;;6.80;86.00;;;;;;6270103;28;20325;-82
2023/12/10 14:33:05;;;;;;;4.93;4.63;;;6.80;86.20;;;;;;6279637;28;20353;-84
2023/12/10 14:36:09;;;;;;;6.17;4.17;;;6.80;86.30;;;;;;6268445;28;20333;-87
2023/12/10 14:39:13;;;;;;;6.90;5.07;;;6.80;86.20;;;;;;6268668;28;20302;-86
2023/12/10 14:42:16;;;;;;;6.20;5.60;;;6.80;86.10;;;;;;6282217;28;20222;-85
2023/12/10 14:45:21;;;;;;;7.90;4.77;;;6.80;86.20;;;;;;6266490;28;20313;-85
2023/12/10 14:48:25;;;;;;;6.40;5.23;;;6.80;86.30;;;;;;6271627;28;20304;-85
2023/12/10 14:51:31;;;;;;;5.83;5.33;;;6.80;86.40;;;;;;6282125;28;20223;-86
2023/12/10 14:54:35;;;;;;;5.00;4.13;;;6.80;86.30;;;;;;6279382;28;20297;-86
2023/12/10 14:57:38;;;;;;;5.67;4.97;;;6.80;86.30;;;;;;6270189;28;20284;-86
2023/12/10 15:00:43;;;;;;;5.33;4.90;;;6.80;86.30;;;;;;6258828;28;20309;-87
2023/12/10 15:03:49;;;;;;;10.13;5.83;;;6.80;86.50;;;;;;6269516;28;20252;-85
2023/12/10 15:06:54;;;;;;;7.97;5.07;;;6.80;86.40;;;;;;6250521;28;20298;-86
2023/12/10 15:09:59;;;;;;;5.23;4.73;;;6.80;86.50;;;;;;6241910;28;20246;-86
2023/12/10 15:13:03;;;;;;;7.87;5.07;;;6.80;86.30;;;;;;6261243;28;20290;-85
2023/12/10 15:16:09;;;;;;;5.23;4.60;;;6.80;86.10;;;;;;6255284;28;20492;-86
2023/12/10 15:19:13;;;;;;;5.60;5.07;;;6.90;86.00;;;;;;6255310;28;20321;-85
2023/12/10 15:22:18;;;;;;;4.97;4.67;;;6.90;86.00;;;;;;6253208;28;20264;-86
2023/12/10 15:25:21;;;;;;;6.77;5.23;;;6.90;85.90;;;;;;6270782;28;20229;-84
2023/12/10 15:28:25;;;;;;;5.10;4.80;;;6.90;85.70;;;;;;6250494;28;20722;-87
2023/12/10 15:31:33;;;;;;;7.17;5.20;;;6.90;85.50;;;;;;6264965;28;20262;-86
2023/12/10 15:34:36;;;;;;;5.27;4.80;;;7.00;85.30;;;;;;6262460;28;20245;-87
2023/12/10 15:37:40;;;;;;;6.77;5.33;;;7.00;85.20;;;;;;6249726;28;20253;-86
2023/12/10 15:40:49;;;;;;;7.17;4.70;;;6.90;85.40;;;;;;6273200;28;20222;-86
2023/12/10 15:43:52;;;;;;;4.97;4.67;;;6.90;85.40;;;;;;6254521;28;20238;-86
2023/12/10 15:46:57;;;;;;;5.40;4.93;;;6.90;85.50;;;;;;6261043;28;20230;-87
2023/12/10 15:50:01;;;;;;;7.90;4.63;;;6.90;85.40;;;;;;6261103;28;20223;-85
2023/12/10 15:53:05;;;;;;;4.77;4.50;;;6.90;85.20;;;;;;6278603;28;20244;-85